NCAR-RAP Real-Time Weather Data

Output produced by METARs form (08 May 2021  02:26 UTC)
found at http://weather.rap.ucar.edu/surface/
 
KSNA 080153Z 23006KT 10SM FEW027 18/11 A2993 RMK AO2 SLP133 T01780111
KSNA 080053Z COR 20007KT 10SM FEW027 19/11 A2994 RMK AO2 SLP138 T01890111
KSNA 072353Z 22009KT 10SM FEW025 19/11 A2995 RMK AO2 SLP142 T01940111 10211 20178 56013
KSNA 072253Z 23009G15KT 10SM FEW025 21/11 A2996 RMK AO2 SLP143 T02060111
KSNA 072153Z 22010G16KT 10SM FEW025 21/12 A2997 RMK AO2 SLP147 T02060117
KSNA 072053Z 21007KT 10SM SCT028 21/12 A2999 RMK AO2 SLP153 T02060117 58014
KSNA 071953Z 22008KT 10SM SCT027 21/12 A3001 RMK AO2 SLP161 T02060117
KSNA 071922Z VRB06KT 10SM SCT027 19/11 A3002 RMK AO2 T01940111
KSNA 071853Z 22004KT 10SM OVC027 19/11 A3003 RMK AO2 SLP167 T01940111
KSNA 071753Z 22006KT 10SM OVC024 18/11 A3003 RMK AO2 SLP169 T01780111 10183 20161 51001
KSNA 071653Z 20003KT 10SM OVC020 17/11 A3003 RMK AO2 SLP169 T01720111
KSNA 071553Z 24003KT 10SM OVC018 17/11 A3003 RMK AO2 SLP168 T01670111
KSNA 071453Z 00000KT 10SM OVC016 16/11 A3003 RMK AO2 SLP168 T01610111 53011
KSNA 071353Z 16003KT 10SM OVC015 16/12 A3001 RMK AO2 SLP163 T01610117